Terminal Aerodrome Forecast
Issued by NWS

Home | Current Version | Previous Version | Graphics & Text | Print | Product List | Glossary On
Versions: 1 2 3 4 5 6 7 8 9 10 11 12 13 14 15 16 17 18 19
000
FTUS43 KTOP 022053 AAA
TAFFOE
TAF AMD
KFOE 022053Z 0221/0318 10006KT P6SM VCTS BKN022CB
      TEMPO 0221/0222 BKN019CB
     FM030100 VRB04KT P6SM BKN040
     FM030500 VRB02KT 4SM BR BKN015
     FM031400 01005KT P6SM BKN015=

USA.gov is the U.S. government's official web portal to all federal, state and local government web resources and services.